Terminal Aerodrome Forecast
Issued by NWS

Home | Current Version | Previous Version | Text Only | Print | Product List | Glossary On
Versions: 1 2 3 4 5 6 7 8 9 10 11 12 13 14 15 16 17 18 19 20 21 22 23 24 25 26 27 28 29
000
FTUS41 KCAR 020534
TAFBHB
TAF
KBHB 020534Z 0206/0306 20006KT 1/2SM FG OVC002
      TEMPO 0206/0208 1/4SM FG
     FM020800 22006KT 1SM BR BKN003
     FM021000 25010KT P6SM SCT040
     FM021400 24012G20KT P6SM SCT050
     FM030000 24008KT P6SM SCT050
      AMD LTD TO CLD VIS AND WIND=

USA.gov is the U.S. government's official web portal to all federal, state and local government web resources and services.